sensor_id;sensor_type;location;lat;lon;timestamp;pressure;altitude;pressure_sealevel;temperature;humidity
3524;BME280;1776;53.330;11.498;2022-10-15T00:01:59;53877.59;;;-147.39;66.40
3524;BME280;1776;53.330;11.498;2022-10-15T00:04:24;53893.97;;;-147.39;67.59
3524;BME280;1776;53.330;11.498;2022-10-15T00:06:49;53865.31;;;-147.39;68.43
3524;BME280;1776;53.330;11.498;2022-10-15T00:09:14;53881.69;;;-147.39;69.71
3524;BME280;1776;53.330;11.498;2022-10-15T00:11:40;53900.13;;;-147.39;69.88
3524;BME280;1776;53.330;11.498;2022-10-15T00:14:05;53896.03;;;-147.39;70.51
3524;BME280;1776;53.330;11.498;2022-10-15T00:16:32;53891.94;;;-147.39;71.48
3524;BME280;1776;53.330;11.498;2022-10-15T00:18:58;53879.63;;;-147.39;71.81
3524;BME280;1776;53.330;11.498;2022-10-15T00:21:24;53920.63;;;-147.39;72.32
3524;BME280;1776;53.330;11.498;2022-10-15T00:23:49;53908.31;;;-147.39;72.79
3524;BME280;1776;53.330;11.498;2022-10-15T00:26:20;53898.06;;;-147.39;72.65
3524;BME280;1776;53.330;11.498;2022-10-15T00:28:48;53908.31;;;-147.39;72.34
3524;BME280;1776;53.330;11.498;2022-10-15T00:31:15;53885.78;;;-147.39;72.68
3524;BME280;1776;53.330;11.498;2022-10-15T00:33:42;53896.03;;;-147.39;73.24
3524;BME280;1776;53.330;11.498;2022-10-15T00:36:18;53891.94;;;-147.39;73.51
3524;BME280;1776;53.330;11.498;2022-10-15T00:38:43;53908.31;;;-147.39;73.57
3524;BME280;1776;53.330;11.498;2022-10-15T00:41:17;53889.88;;;-147.39;73.11
3524;BME280;1776;53.330;11.498;2022-10-15T00:43:45;53896.03;;;-147.39;73.21
3524;BME280;1776;53.330;11.498;2022-10-15T00:46:40;53902.19;;;-147.39;73.68
3524;BME280;1776;53.330;11.498;2022-10-15T00:49:27;53910.38;;;-147.39;74.07
3524;BME280;1776;53.330;11.498;2022-10-15T00:54:37;53920.63;;;-147.39;75.01
3524;BME280;1776;53.330;11.498;2022-10-15T00:57:06;53932.91;;;-147.39;75.31
3524;BME280;1776;53.330;11.498;2022-10-15T00:59:34;53893.97;;;-147.39;75.20
3524;BME280;1776;53.330;11.498;2022-10-15T01:02:01;53896.03;;;-147.39;75.79
3524;BME280;1776;53.330;11.498;2022-10-15T01:04:28;53912.41;;;-147.39;76.09
3524;BME280;1776;53.330;11.498;2022-10-15T01:06:54;53916.50;;;-147.39;76.48
3524;BME280;1776;53.330;11.498;2022-10-15T01:09:20;53922.66;;;-147.39;76.83
3524;BME280;1776;53.330;11.498;2022-10-15T01:11:47;53928.81;;;-147.39;77.11
3524;BME280;1776;53.330;11.498;2022-10-15T01:17:16;53893.97;;;-147.39;76.87
3524;BME280;1776;53.330;11.498;2022-10-15T01:30:48;53904.22;;;-147.39;77.22
3524;BME280;1776;53.330;11.498;2022-10-15T01:33:21;53891.94;;;-147.39;76.91
3524;BME280;1776;53.330;11.498;2022-10-15T01:40:50;53891.94;;;-147.39;76.28
3524;BME280;1776;53.330;11.498;2022-10-15T01:43:26;53887.84;;;-147.39;76.21
3524;BME280;1776;53.330;11.498;2022-10-15T01:46:01;53875.53;;;-147.39;76.21
3524;BME280;1776;53.330;11.498;2022-10-15T01:48:30;53904.22;;;-147.39;76.02
3524;BME280;1776;53.330;11.498;2022-10-15T01:50:59;53920.63;;;-147.39;76.31
3524;BME280;1776;53.330;11.498;2022-10-15T01:53:27;53914.47;;;-147.39;76.41
3524;BME280;1776;53.330;11.498;2022-10-15T01:55:56;53889.88;;;-147.39;77.03
3524;BME280;1776;53.330;11.498;2022-10-15T01:58:23;53949.28;;;-147.39;76.96
3524;BME280;1776;53.330;11.498;2022-10-15T02:00:48;53902.19;;;-147.39;77.23
3524;BME280;1776;53.330;11.498;2022-10-15T02:03:15;53918.56;;;-147.39;77.20
3524;BME280;1776;53.330;11.498;2022-10-15T02:06:05;53943.16;;;-147.39;77.36
3524;BME280;1776;53.330;11.498;2022-10-15T02:11:59;53928.81;;;-147.39;77.74
3524;BME280;1776;53.330;11.498;2022-10-15T02:14:46;53928.81;;;-147.39;77.72
3524;BME280;1776;53.330;11.498;2022-10-15T02:17:13;53869.41;;;-147.39;78.13
3524;BME280;1776;53.330;11.498;2022-10-15T02:22:15;53924.72;;;-147.39;77.79
3524;BME280;1776;53.330;11.498;2022-10-15T02:24:52;53904.22;;;-147.39;77.78
3524;BME280;1776;53.330;11.498;2022-10-15T02:27:20;53912.41;;;-147.39;77.76
3524;BME280;1776;53.330;11.498;2022-10-15T02:29:48;53906.28;;;-147.39;77.71
3524;BME280;1776;53.330;11.498;2022-10-15T02:32:15;53924.72;;;-147.39;77.66
3524;BME280;1776;53.330;11.498;2022-10-15T02:34:44;53916.50;;;-147.39;77.72
3524;BME280;1776;53.330;11.498;2022-10-15T02:37:10;53920.63;;;-147.39;77.39
3524;BME280;1776;53.330;11.498;2022-10-15T02:39:36;53879.63;;;-147.39;77.15
3524;BME280;1776;53.330;11.498;2022-10-15T02:42:02;53904.22;;;-147.39;77.49
3524;BME280;1776;53.330;11.498;2022-10-15T02:44:28;53910.38;;;-147.39;77.27
3524;BME280;1776;53.330;11.498;2022-10-15T02:46:54;53910.38;;;-147.39;77.94
3524;BME280;1776;53.330;11.498;2022-10-15T02:49:19;53916.50;;;-147.39;78.23
3524;BME280;1776;53.330;11.498;2022-10-15T02:51:44;53934.97;;;-147.39;78.20
3524;BME280;1776;53.330;11.498;2022-10-15T02:54:10;53916.50;;;-147.39;78.04
3524;BME280;1776;53.330;11.498;2022-10-15T02:56:35;53910.38;;;-147.39;77.67
3524;BME280;1776;53.330;11.498;2022-10-15T02:59:03;53904.22;;;-147.39;77.77
3524;BME280;1776;53.330;11.498;2022-10-15T03:01:30;53896.03;;;-147.39;77.63
3524;BME280;1776;53.330;11.498;2022-10-15T03:03:55;53883.75;;;-147.39;77.30
3524;BME280;1776;53.330;11.498;2022-10-15T03:06:20;54018.97;;;-147.39;77.53
3524;BME280;1776;53.330;11.498;2022-10-15T03:08:45;53900.13;;;-147.39;77.77
3524;BME280;1776;53.330;11.498;2022-10-15T03:11:11;53916.50;;;-147.39;77.60
3524;BME280;1776;53.330;11.498;2022-10-15T03:13:39;53904.22;;;-147.39;77.29
3524;BME280;1776;53.330;11.498;2022-10-15T03:16:06;53900.13;;;-147.39;76.97
3524;BME280;1776;53.330;11.498;2022-10-15T03:18:32;53930.84;;;-147.39;76.86
3524;BME280;1776;53.330;11.498;2022-10-15T03:20:58;53893.97;;;-147.39;77.34
3524;BME280;1776;53.330;11.498;2022-10-15T03:23:24;53912.41;;;-147.39;77.40
3524;BME280;1776;53.330;11.498;2022-10-15T03:25:49;53916.50;;;-147.39;77.02
3524;BME280;1776;53.330;11.498;2022-10-15T03:28:14;53924.72;;;-147.39;77.04
3524;BME280;1776;53.330;11.498;2022-10-15T03:30:41;53912.41;;;-147.39;76.97
3524;BME280;1776;53.330;11.498;2022-10-15T03:33:06;53846.88;;;-147.39;76.80
3524;BME280;1776;53.330;11.498;2022-10-15T03:35:31;53904.22;;;-147.39;77.04
3524;BME280;1776;53.330;11.498;2022-10-15T03:37:57;53896.03;;;-147.39;77.10
3524;BME280;1776;53.330;11.498;2022-10-15T03:40:22;53945.19;;;-147.39;78.03
3524;BME280;1776;53.330;11.498;2022-10-15T03:42:50;53900.13;;;-147.39;78.02
3524;BME280;1776;53.330;11.498;2022-10-15T03:45:17;53928.81;;;-147.39;78.31
3524;BME280;1776;53.330;11.498;2022-10-15T03:47:42;53904.22;;;-147.39;78.48
3524;BME280;1776;53.330;11.498;2022-10-15T03:50:08;53881.69;;;-147.39;79.01
3524;BME280;1776;53.330;11.498;2022-10-15T03:52:35;53902.19;;;-147.39;78.83
3524;BME280;1776;53.330;11.498;2022-10-15T03:55:01;53916.50;;;-147.39;78.69
3524;BME280;1776;53.330;11.498;2022-10-15T03:57:26;53916.50;;;-147.39;79.21
3524;BME280;1776;53.330;11.498;2022-10-15T03:59:51;53932.91;;;-147.39;78.93
3524;BME280;1776;53.330;11.498;2022-10-15T04:02:16;53883.75;;;-147.39;79.03
3524;BME280;1776;53.330;11.498;2022-10-15T04:04:42;53900.13;;;-147.39;79.41
3524;BME280;1776;53.330;11.498;2022-10-15T04:07:07;53945.19;;;-147.39;78.89
3524;BME280;1776;53.330;11.498;2022-10-15T04:09:32;53887.84;;;-147.39;79.08
3524;BME280;1776;53.330;11.498;2022-10-15T04:11:58;53900.13;;;-147.39;78.72
3524;BME280;1776;53.330;11.498;2022-10-15T04:14:23;53883.75;;;-147.39;78.43
3524;BME280;1776;53.330;11.498;2022-10-15T04:16:48;53902.19;;;-147.39;78.45
3524;BME280;1776;53.330;11.498;2022-10-15T04:19:13;53926.75;;;-147.39;78.53
3524;BME280;1776;53.330;11.498;2022-10-15T04:21:40;53900.13;;;-147.39;78.20
3524;BME280;1776;53.330;11.498;2022-10-15T04:24:05;53918.56;;;-147.39;78.34
3524;BME280;1776;53.330;11.498;2022-10-15T04:26:30;53896.03;;;-147.39;77.90
3524;BME280;1776;53.330;11.498;2022-10-15T04:28:56;53900.13;;;-147.39;77.83
3524;BME280;1776;53.330;11.498;2022-10-15T04:31:21;53902.19;;;-147.39;77.84
3524;BME280;1776;53.330;11.498;2022-10-15T04:33:47;53902.19;;;-147.39;77.97
3524;BME280;1776;53.330;11.498;2022-10-15T04:36:13;53912.41;;;-147.39;78.34
3524;BME280;1776;53.330;11.498;2022-10-15T04:38:38;53887.84;;;-147.39;78.45
3524;BME280;1776;53.330;11.498;2022-10-15T04:41:07;53896.03;;;-147.39;78.93
3524;BME280;1776;53.330;11.498;2022-10-15T04:43:32;53957.50;;;-147.39;78.66
3524;BME280;1776;53.330;11.498;2022-10-15T04:46:00;53934.97;;;-147.39;78.91
3524;BME280;1776;53.330;11.498;2022-10-15T04:48:30;53924.72;;;-147.39;79.02
3524;BME280;1776;53.330;11.498;2022-10-15T04:51:08;53904.22;;;-147.39;79.18
3524;BME280;1776;53.330;11.498;2022-10-15T04:53:35;53893.97;;;-147.39;79.36
3524;BME280;1776;53.330;11.498;2022-10-15T04:56:02;53904.22;;;-147.39;79.37
3524;BME280;1776;53.330;11.498;2022-10-15T04:58:30;53918.56;;;-147.39;79.29
3524;BME280;1776;53.330;11.498;2022-10-15T05:01:02;53910.38;;;-147.39;79.51
3524;BME280;1776;53.330;11.498;2022-10-15T05:03:27;53883.75;;;-147.39;79.66
3524;BME280;1776;53.330;11.498;2022-10-15T05:05:53;53898.06;;;-147.39;79.54
3524;BME280;1776;53.330;11.498;2022-10-15T05:08:18;53914.47;;;-147.39;79.47
3524;BME280;1776;53.330;11.498;2022-10-15T05:10:43;53904.22;;;-147.39;79.22
3524;BME280;1776;53.330;11.498;2022-10-15T05:13:09;53939.06;;;-147.39;79.13
3524;BME280;1776;53.330;11.498;2022-10-15T05:15:34;53896.03;;;-147.39;78.91
3524;BME280;1776;53.330;11.498;2022-10-15T05:17:59;53900.13;;;-147.39;78.26
3524;BME280;1776;53.330;11.498;2022-10-15T05:20:25;53912.41;;;-147.39;78.71
3524;BME280;1776;53.330;11.498;2022-10-15T05:22:50;53916.50;;;-147.39;78.88
3524;BME280;1776;53.330;11.498;2022-10-15T05:25:15;53930.84;;;-147.39;78.56
3524;BME280;1776;53.330;11.498;2022-10-15T05:27:41;53893.97;;;-147.39;78.65
3524;BME280;1776;53.330;11.498;2022-10-15T05:30:06;53891.94;;;-147.39;78.59
3524;BME280;1776;53.330;11.498;2022-10-15T05:32:32;53926.75;;;-147.39;78.42
3524;BME280;1776;53.330;11.498;2022-10-15T05:34:57;53920.63;;;-147.39;77.80
3524;BME280;1776;53.330;11.498;2022-10-15T05:37:22;53900.13;;;-147.39;77.96
3524;BME280;1776;53.330;11.498;2022-10-15T05:39:48;53926.75;;;-147.39;77.84
3524;BME280;1776;53.330;11.498;2022-10-15T05:42:13;53906.28;;;-147.39;77.71
3524;BME280;1776;53.330;11.498;2022-10-15T05:44:38;53896.03;;;-147.39;77.18
3524;BME280;1776;53.330;11.498;2022-10-15T05:47:03;53920.63;;;-147.39;77.25
3524;BME280;1776;53.330;11.498;2022-10-15T05:49:29;53889.88;;;-147.39;76.54
3524;BME280;1776;53.330;11.498;2022-10-15T05:51:54;53898.06;;;-147.39;76.42
3524;BME280;1776;53.330;11.498;2022-10-15T05:54:20;53922.66;;;-147.39;76.44
3524;BME280;1776;53.330;11.498;2022-10-15T05:56:45;53912.41;;;-147.39;76.45
3524;BME280;1776;53.330;11.498;2022-10-15T05:59:10;53877.59;;;-147.39;76.04
3524;BME280;1776;53.330;11.498;2022-10-15T06:01:35;53957.50;;;-147.39;75.64
3524;BME280;1776;53.330;11.498;2022-10-15T06:04:02;53922.66;;;-147.39;76.06
3524;BME280;1776;53.330;11.498;2022-10-15T06:06:27;53916.50;;;-147.39;75.98
3524;BME280;1776;53.330;11.498;2022-10-15T06:08:53;53930.84;;;-147.39;76.27
3524;BME280;1776;53.330;11.498;2022-10-15T06:11:19;53918.56;;;-147.39;76.14
3524;BME280;1776;53.330;11.498;2022-10-15T06:13:45;53916.50;;;-147.39;75.85
3524;BME280;1776;53.330;11.498;2022-10-15T06:16:12;53920.63;;;-147.39;76.14
3524;BME280;1776;53.330;11.498;2022-10-15T06:18:38;53924.72;;;-147.39;75.79
3524;BME280;1776;53.330;11.498;2022-10-15T06:21:04;53914.47;;;-147.39;75.60
3524;BME280;1776;53.330;11.498;2022-10-15T06:23:30;53912.41;;;-147.39;75.10
3524;BME280;1776;53.330;11.498;2022-10-15T06:25:55;53937.00;;;-147.39;75.00
3524;BME280;1776;53.330;11.498;2022-10-15T06:28:21;53902.19;;;-147.39;75.29
3524;BME280;1776;53.330;11.498;2022-10-15T06:30:46;53932.91;;;-147.39;75.11
3524;BME280;1776;53.330;11.498;2022-10-15T06:33:12;53910.38;;;-147.39;74.97
3524;BME280;1776;53.330;11.498;2022-10-15T06:35:37;53928.81;;;-147.39;74.62
3524;BME280;1776;53.330;11.498;2022-10-15T06:38:04;53943.16;;;-147.39;74.53
3524;BME280;1776;53.330;11.498;2022-10-15T06:40:30;53922.66;;;-147.39;74.38
3524;BME280;1776;53.330;11.498;2022-10-15T06:43:06;53922.66;;;-147.39;73.64
3524;BME280;1776;53.330;11.498;2022-10-15T06:45:36;53910.38;;;-147.39;73.61
3524;BME280;1776;53.330;11.498;2022-10-15T06:48:03;53928.81;;;-147.39;73.53
3524;BME280;1776;53.330;11.498;2022-10-15T06:50:30;53924.72;;;-147.39;73.38
3524;BME280;1776;53.330;11.498;2022-10-15T06:52:56;53902.19;;;-147.39;73.44
3524;BME280;1776;53.330;11.498;2022-10-15T06:55:21;53918.56;;;-147.39;73.52
3524;BME280;1776;53.330;11.498;2022-10-15T06:57:47;53937.00;;;-147.39;73.27
3524;BME280;1776;53.330;11.498;2022-10-15T07:00:13;53891.94;;;-147.39;73.25
3524;BME280;1776;53.330;11.498;2022-10-15T07:02:38;53896.03;;;-147.39;73.17
3524;BME280;1776;53.330;11.498;2022-10-15T07:05:04;53906.28;;;-147.39;72.51
3524;BME280;1776;53.330;11.498;2022-10-15T07:07:30;53885.78;;;-147.39;72.27
3524;BME280;1776;53.330;11.498;2022-10-15T07:09:55;53900.13;;;-147.39;73.40
3524;BME280;1776;53.330;11.498;2022-10-15T07:12:20;53910.38;;;-147.39;73.99
3524;BME280;1776;53.330;11.498;2022-10-15T07:14:47;53896.03;;;-147.39;74.45
3524;BME280;1776;53.330;11.498;2022-10-15T07:17:13;53939.06;;;-147.39;74.35
3524;BME280;1776;53.330;11.498;2022-10-15T07:19:38;53898.06;;;-147.39;74.57
3524;BME280;1776;53.330;11.498;2022-10-15T07:22:04;53920.63;;;-147.39;74.59
3524;BME280;1776;53.330;11.498;2022-10-15T07:24:29;53916.50;;;-147.39;74.51
3524;BME280;1776;53.330;11.498;2022-10-15T07:26:54;53904.22;;;-147.39;74.07
3524;BME280;1776;53.330;11.498;2022-10-15T07:29:20;53916.50;;;-147.39;73.62
3524;BME280;1776;53.330;11.498;2022-10-15T07:31:45;53893.97;;;-147.39;73.20
3524;BME280;1776;53.330;11.498;2022-10-15T07:34:10;53875.53;;;-147.39;72.72
3524;BME280;1776;53.330;11.498;2022-10-15T07:36:35;53906.28;;;-147.39;69.90
3524;BME280;1776;53.330;11.498;2022-10-15T07:39:01;53863.25;;;-147.39;70.63
3524;BME280;1776;53.330;11.498;2022-10-15T07:41:26;53848.91;;;-147.39;69.93
3524;BME280;1776;53.330;11.498;2022-10-15T07:43:51;53857.09;;;-147.39;67.12
3524;BME280;1776;53.330;11.498;2022-10-15T07:46:18;53877.59;;;-147.39;67.09
3524;BME280;1776;53.330;11.498;2022-10-15T07:48:43;53859.16;;;-147.39;68.19
3524;BME280;1776;53.330;11.498;2022-10-15T07:51:09;53891.94;;;-147.39;69.78
3524;BME280;1776;53.330;11.498;2022-10-15T07:53:35;53883.75;;;-147.39;70.16
3524;BME280;1776;53.330;11.498;2022-10-15T07:56:03;53900.13;;;-147.39;70.72
3524;BME280;1776;53.330;11.498;2022-10-15T07:58:31;53955.44;;;-147.39;68.74
3524;BME280;1776;53.330;11.498;2022-10-15T08:00:59;53826.38;;;-147.39;62.71
3524;BME280;1776;53.330;11.498;2022-10-15T08:03:25;53742.38;;;-147.39;57.61
3524;BME280;1776;53.330;11.498;2022-10-15T08:05:51;53762.88;;;-147.39;56.27
3524;BME280;1776;53.330;11.498;2022-10-15T08:08:18;53758.75;;;-147.39;55.16
3524;BME280;1776;53.330;11.498;2022-10-15T08:10:44;53787.44;;;-147.39;55.56
3524;BME280;1776;53.330;11.498;2022-10-15T08:13:10;53791.53;;;-147.39;56.98
3524;BME280;1776;53.330;11.498;2022-10-15T08:15:38;53840.72;;;-147.39;60.21
3524;BME280;1776;53.330;11.498;2022-10-15T08:18:03;53853.00;;;-147.39;61.30
3524;BME280;1776;53.330;11.498;2022-10-15T08:20:28;53848.91;;;-147.39;62.71
3524;BME280;1776;53.330;11.498;2022-10-15T08:22:54;53816.13;;;-147.39;64.25
3524;BME280;1776;53.330;11.498;2022-10-15T08:25:19;53896.03;;;-147.39;65.66
3524;BME280;1776;53.330;11.498;2022-10-15T08:27:45;53930.84;;;-147.39;67.20
3524;BME280;1776;53.330;11.498;2022-10-15T08:30:10;53902.19;;;-147.39;67.31
3524;BME280;1776;53.330;11.498;2022-10-15T08:32:35;53918.56;;;-147.39;67.43
3524;BME280;1776;53.330;11.498;2022-10-15T08:35:00;53863.25;;;-147.39;67.79
3524;BME280;1776;53.330;11.498;2022-10-15T08:37:26;53918.56;;;-147.39;68.26
3524;BME280;1776;53.330;11.498;2022-10-15T08:39:51;53871.44;;;-147.39;68.62
3524;BME280;1776;53.330;11.498;2022-10-15T08:42:19;53889.88;;;-147.39;68.29
3524;BME280;1776;53.330;11.498;2022-10-15T08:44:50;53900.13;;;-147.39;68.29
3524;BME280;1776;53.330;11.498;2022-10-15T08:49:57;53873.50;;;-147.39;64.32
3524;BME280;1776;53.330;11.498;2022-10-15T08:54:52;53844.81;;;-147.39;63.14
3524;BME280;1776;53.330;11.498;2022-10-15T08:57:32;53797.69;;;-147.39;59.25
3524;BME280;1776;53.330;11.498;2022-10-15T09:00:21;53855.06;;;-147.39;60.55
3524;BME280;1776;53.330;11.498;2022-10-15T09:02:53;53863.25;;;-147.39;62.31
3524;BME280;1776;53.330;11.498;2022-10-15T09:05:29;53908.31;;;-147.39;63.83
3524;BME280;1776;53.330;11.498;2022-10-15T09:10:49;53906.28;;;-147.39;65.38
3524;BME280;1776;53.330;11.498;2022-10-15T09:15:54;53910.38;;;-147.39;66.15
3524;BME280;1776;53.330;11.498;2022-10-15T09:18:23;53869.41;;;-147.39;62.70
3524;BME280;1776;53.330;11.498;2022-10-15T09:20:51;53787.44;;;-147.39;57.40
3524;BME280;1776;53.330;11.498;2022-10-15T09:23:20;53789.50;;;-147.39;55.03
3524;BME280;1776;53.330;11.498;2022-10-15T09:25:54;53814.09;;;-147.39;57.14
3524;BME280;1776;53.330;11.498;2022-10-15T09:28:24;53809.97;;;-147.39;59.91
3524;BME280;1776;53.330;11.498;2022-10-15T09:30:54;53826.38;;;-147.39;61.92
3524;BME280;1776;53.330;11.498;2022-10-15T09:33:37;53906.28;;;-147.39;62.77
3524;BME280;1776;53.330;11.498;2022-10-15T09:39:03;53875.53;;;-147.39;62.95
3524;BME280;1776;53.330;11.498;2022-10-15T09:44:37;53842.75;;;-147.39;60.63
3524;BME280;1776;53.330;11.498;2022-10-15T09:47:16;53865.31;;;-147.39;62.09
3524;BME280;1776;53.330;11.498;2022-10-15T09:49:42;53855.06;;;-147.39;62.96
3524;BME280;1776;53.330;11.498;2022-10-15T09:52:18;53832.53;;;-147.39;63.75
3524;BME280;1776;53.330;11.498;2022-10-15T09:57:33;53867.34;;;-147.39;63.13
3524;BME280;1776;53.330;11.498;2022-10-15T10:00:04;53848.91;;;-147.39;62.78
3524;BME280;1776;53.330;11.498;2022-10-15T10:02:31;53844.81;;;-147.39;62.69
3524;BME280;1776;53.330;11.498;2022-10-15T10:04:56;53908.31;;;-147.39;62.38
3524;BME280;1776;53.330;11.498;2022-10-15T10:07:40;53850.97;;;-147.39;62.72
3524;BME280;1776;53.330;11.498;2022-10-15T10:10:24;53865.31;;;-147.39;62.19
3524;BME280;1776;53.330;11.498;2022-10-15T10:12:50;53883.75;;;-147.39;61.61
3524;BME280;1776;53.330;11.498;2022-10-15T10:15:32;53867.34;;;-147.39;61.21
3524;BME280;1776;53.330;11.498;2022-10-15T10:17:58;53848.91;;;-147.39;61.25
3524;BME280;1776;53.330;11.498;2022-10-15T10:20:28;53838.66;;;-147.39;60.83
3524;BME280;1776;53.330;11.498;2022-10-15T10:22:59;53830.47;;;-147.39;59.76
3524;BME280;1776;53.330;11.498;2022-10-15T10:27:51;53832.53;;;-147.39;59.92
3524;BME280;1776;53.330;11.498;2022-10-15T10:30:17;53855.06;;;-147.39;59.46
3524;BME280;1776;53.330;11.498;2022-10-15T10:32:42;53850.97;;;-147.39;59.12
3524;BME280;1776;53.330;11.498;2022-10-15T10:35:35;53809.97;;;-147.39;58.85
3524;BME280;1776;53.330;11.498;2022-10-15T10:38:18;53826.38;;;-147.39;58.25
3524;BME280;1776;53.330;11.498;2022-10-15T10:40:52;53812.03;;;-147.39;58.17
3524;BME280;1776;53.330;11.498;2022-10-15T10:43:25;53830.47;;;-147.39;59.10
3524;BME280;1776;53.330;11.498;2022-10-15T10:48:45;53826.38;;;-147.39;59.30
3524;BME280;1776;53.330;11.498;2022-10-15T10:53:46;53785.41;;;-147.39;58.16
3524;BME280;1776;53.330;11.498;2022-10-15T10:56:13;53795.66;;;-147.39;57.14
3524;BME280;1776;53.330;11.498;2022-10-15T10:58:41;53818.19;;;-147.39;57.01
3524;BME280;1776;53.330;11.498;2022-10-15T11:01:11;53836.63;;;-147.39;57.44
3524;BME280;1776;53.330;11.498;2022-10-15T11:03:42;53840.72;;;-147.39;57.57
3524;BME280;1776;53.330;11.498;2022-10-15T11:14:31;53805.88;;;-147.39;57.10
3524;BME280;1776;53.330;11.498;2022-10-15T11:20:27;53814.09;;;-147.39;56.16
3524;BME280;1776;53.330;11.498;2022-10-15T11:28:33;53795.66;;;-147.39;55.12
3524;BME280;1776;53.330;11.498;2022-10-15T11:34:07;53807.94;;;-147.39;56.27
3524;BME280;1776;53.330;11.498;2022-10-15T11:42:20;53787.44;;;-147.39;55.73
3524;BME280;1776;53.330;11.498;2022-10-15T11:47:33;53807.94;;;-147.39;55.20
3524;BME280;1776;53.330;11.498;2022-10-15T11:50:26;53795.66;;;-147.39;55.18
3524;BME280;1776;53.330;11.498;2022-10-15T11:56:04;53773.09;;;-147.39;56.16
3524;BME280;1776;53.330;11.498;2022-10-15T11:58:39;53850.97;;;-147.39;56.22
3524;BME280;1776;53.330;11.498;2022-10-15T12:01:26;53803.84;;;-147.39;56.37
3524;BME280;1776;53.330;11.498;2022-10-15T12:04:01;53771.06;;;-147.39;55.93
3524;BME280;1776;53.330;11.498;2022-10-15T12:06:32;53797.69;;;-147.39;56.51
3524;BME280;1776;53.330;11.498;2022-10-15T12:09:02;53814.09;;;-147.39;56.21
3524;BME280;1776;53.330;11.498;2022-10-15T12:14:44;53791.53;;;-147.39;55.63
3524;BME280;1776;53.330;11.498;2022-10-15T12:17:29;53791.53;;;-147.39;55.59
3524;BME280;1776;53.330;11.498;2022-10-15T12:20:06;53781.31;;;-147.39;56.14
3524;BME280;1776;53.330;11.498;2022-10-15T12:22:37;53801.78;;;-147.39;55.52
3524;BME280;1776;53.330;11.498;2022-10-15T12:25:03;53775.16;;;-147.39;55.37
3524;BME280;1776;53.330;11.498;2022-10-15T12:27:34;53799.75;;;-147.39;55.67
3524;BME280;1776;53.330;11.498;2022-10-15T12:32:35;53818.19;;;-147.39;55.69
3524;BME280;1776;53.330;11.498;2022-10-15T12:35:04;53805.88;;;-147.39;55.59
3524;BME280;1776;53.330;11.498;2022-10-15T12:37:32;53787.44;;;-147.39;55.05
3524;BME280;1776;53.330;11.498;2022-10-15T12:42:58;53816.13;;;-147.39;55.30
3524;BME280;1776;53.330;11.498;2022-10-15T12:45:33;53791.53;;;-147.39;54.89
3524;BME280;1776;53.330;11.498;2022-10-15T12:50:29;53797.69;;;-147.39;54.85
3524;BME280;1776;53.330;11.498;2022-10-15T12:52:56;53812.03;;;-147.39;54.30
3524;BME280;1776;53.330;11.498;2022-10-15T12:55:37;53801.78;;;-147.39;54.26
3524;BME280;1776;53.330;11.498;2022-10-15T13:00:47;53785.41;;;-147.39;54.55
3524;BME280;1776;53.330;11.498;2022-10-15T13:03:34;53797.69;;;-147.39;54.40
3524;BME280;1776;53.330;11.498;2022-10-15T13:08:47;53816.13;;;-147.39;54.51
3524;BME280;1776;53.330;11.498;2022-10-15T13:11:30;53783.34;;;-147.39;54.24
3524;BME280;1776;53.330;11.498;2022-10-15T13:14:00;53795.66;;;-147.39;53.96
3524;BME280;1776;53.330;11.498;2022-10-15T13:16:26;53791.53;;;-147.39;54.36
3524;BME280;1776;53.330;11.498;2022-10-15T13:18:53;53793.59;;;-147.39;55.06
3524;BME280;1776;53.330;11.498;2022-10-15T13:21:20;53797.69;;;-147.39;54.99
3524;BME280;1776;53.330;11.498;2022-10-15T13:23:48;53805.88;;;-147.39;55.37
3524;BME280;1776;53.330;11.498;2022-10-15T13:26:23;53809.97;;;-147.39;54.88
3524;BME280;1776;53.330;11.498;2022-10-15T13:28:52;53861.19;;;-147.39;55.33
3524;BME280;1776;53.330;11.498;2022-10-15T13:31:28;53783.34;;;-147.39;55.00
3524;BME280;1776;53.330;11.498;2022-10-15T13:33:58;53777.22;;;-147.39;55.20
3524;BME280;1776;53.330;11.498;2022-10-15T13:36:30;53816.13;;;-147.39;55.09
3524;BME280;1776;53.330;11.498;2022-10-15T13:38:59;53793.59;;;-147.39;55.52
3524;BME280;1776;53.330;11.498;2022-10-15T13:41:36;53803.84;;;-147.39;56.21
3524;BME280;1776;53.330;11.498;2022-10-15T13:44:03;53809.97;;;-147.39;56.23
3524;BME280;1776;53.330;11.498;2022-10-15T13:46:31;53785.41;;;-147.39;56.76
3524;BME280;1776;53.330;11.498;2022-10-15T13:49:02;53816.13;;;-147.39;56.97
3524;BME280;1776;53.330;11.498;2022-10-15T13:51:41;53809.97;;;-147.39;57.22
3524;BME280;1776;53.330;11.498;2022-10-15T13:54:19;53789.50;;;-147.39;57.26
3524;BME280;1776;53.330;11.498;2022-10-15T13:56:51;53828.41;;;-147.39;57.49
3524;BME280;1776;53.330;11.498;2022-10-15T13:59:19;53824.31;;;-147.39;57.90
3524;BME280;1776;53.330;11.498;2022-10-15T14:01:46;53816.13;;;-147.39;57.89
3524;BME280;1776;53.330;11.498;2022-10-15T14:04:18;53828.41;;;-147.39;58.14
3524;BME280;1776;53.330;11.498;2022-10-15T14:06:58;53807.94;;;-147.39;57.99
3524;BME280;1776;53.330;11.498;2022-10-15T14:09:36;53812.03;;;-147.39;58.23
3524;BME280;1776;53.330;11.498;2022-10-15T14:12:06;53783.34;;;-147.39;58.15
3524;BME280;1776;53.330;11.498;2022-10-15T14:14:36;53795.66;;;-147.39;58.56
3524;BME280;1776;53.330;11.498;2022-10-15T14:17:06;53785.41;;;-147.39;58.50
3524;BME280;1776;53.330;11.498;2022-10-15T14:19:35;53812.03;;;-147.39;58.55
3524;BME280;1776;53.330;11.498;2022-10-15T14:22:01;53783.34;;;-147.39;58.57
3524;BME280;1776;53.330;11.498;2022-10-15T14:24:33;53807.94;;;-147.39;58.48
3524;BME280;1776;53.330;11.498;2022-10-15T14:27:19;53787.44;;;-147.39;58.42
3524;BME280;1776;53.330;11.498;2022-10-15T14:29:47;53873.50;;;-147.39;58.41
3524;BME280;1776;53.330;11.498;2022-10-15T14:32:25;53799.75;;;-147.39;58.83
3524;BME280;1776;53.330;11.498;2022-10-15T14:34:53;53797.69;;;-147.39;58.80
3524;BME280;1776;53.330;11.498;2022-10-15T14:42:43;53824.31;;;-147.39;58.96
3524;BME280;1776;53.330;11.498;2022-10-15T14:45:19;53807.94;;;-147.39;59.00
3524;BME280;1776;53.330;11.498;2022-10-15T14:47:50;53818.19;;;-147.39;59.29